Time;durP1;ratioP1;P1;durP2;ratioP2;P2;SDS_P1;SDS_P2;PMS_P1;PMS_P2;Temp;Humidity;BMP_temperature;BMP_pressure;BME280_temperature;BME280_humidity;BME280_pressure;Samples;Min_cycle;Max_cycle;Signal;HPM_P1;HPM_P2
2021/07/21 00:00:38;;;;;;;;;;;18.30;99.90;;;;;;5054377;28;20373;-83
2021/07/21 00:03:04;;;;;;;;;;;18.20;99.90;;;;;;5072917;28;19951;-80
2021/07/21 00:05:30;;;;;;;;;;;18.20;99.90;;;;;;5063262;28;20246;-81
2021/07/21 00:07:56;;;;;;;;;;;18.10;99.90;;;;;;5070740;28;19923;-81
2021/07/21 00:10:23;;;;;;;;;;;18.00;99.90;;;;;;5065253;28;19920;-82
2021/07/21 00:15:34;;;;;;;;;;;17.90;99.90;;;;;;5062127;28;20030;-82
2021/07/21 00:18:14;;;;;;;;;;;17.80;99.90;;;;;;5061100;28;19913;-82
2021/07/21 00:20:40;;;;;;;;;;;17.80;99.90;;;;;;5065353;28;19913;-82
2021/07/21 00:23:05;;;;;;;;;;;17.90;99.90;;;;;;5072033;28;19920;-82
2021/07/21 00:25:31;;;;;;;;;;;17.80;99.90;;;;;;5067223;28;19913;-82
2021/07/21 00:27:56;;;;;;;;;;;17.70;99.90;;;;;;5069947;28;19917;-82
2021/07/21 00:30:22;;;;;;;;;;;17.70;99.90;;;;;;5068797;28;19918;-82
2021/07/21 00:32:48;;;;;;;;;;;17.60;99.90;;;;;;5071673;28;19952;-81
2021/07/21 00:35:15;;;;;;;;;;;17.60;99.90;;;;;;5065579;28;19917;-82
2021/07/21 00:37:40;;;;;;;;;;;17.50;99.90;;;;;;5053249;28;19913;-81
2021/07/21 00:40:06;;;;;;;;;;;17.50;99.90;;;;;;5053585;28;20007;-78
2021/07/21 00:42:32;;;;;;;;;;;17.50;99.90;;;;;;5064639;28;19919;-82
2021/07/21 00:44:57;;;;;;;;;;;17.40;99.90;;;;;;5056172;28;20296;-82
2021/07/21 00:47:23;;;;;;;;;;;17.40;99.90;;;;;;5057269;28;20365;-81
2021/07/21 00:49:49;;;;;;;;;;;17.40;99.90;;;;;;5066483;28;19917;-82
2021/07/21 00:52:18;;;;;;;;;;;17.40;99.90;;;;;;5059630;28;20317;-82
2021/07/21 00:54:46;;;;;;;;;;;17.30;99.90;;;;;;5072186;28;19916;-81
2021/07/21 00:57:12;;;;;;;;;;;17.30;99.90;;;;;;5057634;28;19917;-82
2021/07/21 00:59:38;;;;;;;;;;;17.30;99.90;;;;;;5062550;28;19913;-82
2021/07/21 01:02:04;;;;;;;;;;;17.30;99.90;;;;;;5073353;28;19920;-82
2021/07/21 01:04:32;;;;;;;;;;;17.30;99.90;;;;;;5090088;28;19920;-82
2021/07/21 01:06:58;;;;;;;;;;;17.30;99.90;;;;;;5062336;28;20018;-83
2021/07/21 01:09:24;;;;;;;;;;;17.30;99.90;;;;;;5055841;28;20020;-82
2021/07/21 01:11:55;;;;;;;;;;;17.30;99.90;;;;;;5075818;28;19955;-83
2021/07/21 01:14:36;;;;;;;;;;;17.20;99.90;;;;;;5074489;28;20026;-82
2021/07/21 01:17:04;;;;;;;;;;;17.20;99.90;;;;;;5072767;28;19912;-83
2021/07/21 01:19:49;;;;;;;;;;;17.20;99.90;;;;;;5065846;28;19920;-82
2021/07/21 01:22:19;;;;;;;;;;;17.20;99.90;;;;;;5073401;28;20053;-82
2021/07/21 01:24:50;;;;;;;;;;;17.10;99.90;;;;;;5076805;28;19992;-82
2021/07/21 01:27:26;;;;;;;;;;;17.10;99.90;;;;;;5069976;28;20342;-83
2021/07/21 01:29:53;;;;;;;;;;;17.00;99.90;;;;;;5072334;28;19917;-83
2021/07/21 01:32:19;;;;;;;;;;;16.90;99.90;;;;;;5064271;28;19912;-83
2021/07/21 01:34:47;;;;;;;;;;;16.90;99.90;;;;;;5059080;28;20277;-83
2021/07/21 01:37:13;;;;;;;;;;;16.90;99.90;;;;;;5069503;28;20368;-82
2021/07/21 01:39:41;;;;;;;;;;;16.80;99.90;;;;;;5067281;28;19912;-82
2021/07/21 01:42:08;;;;;;;;;;;16.90;99.90;;;;;;5072639;28;19966;-83
2021/07/21 01:44:36;;;;;;;;;;;16.90;99.90;;;;;;5074918;28;19944;-83
2021/07/21 01:47:02;;;;;;;;;;;16.90;99.90;;;;;;5068086;28;19913;-82
2021/07/21 01:49:30;;;;;;;;;;;16.90;99.90;;;;;;5066884;28;19922;-81
2021/07/21 01:52:01;;;;;;;;;;;16.90;99.90;;;;;;5056993;28;20328;-82
2021/07/21 01:54:26;;;;;;;;;;;16.90;99.90;;;;;;5069802;28;19947;-81
2021/07/21 01:56:52;;;;;;;;;;;16.90;99.90;;;;;;5075142;28;20365;-82
2021/07/21 01:59:19;;;;;;;;;;;16.80;99.90;;;;;;5077459;28;19913;-83
2021/07/21 02:01:45;;;;;;;;;;;16.80;99.90;;;;;;5070845;28;19921;-83
2021/07/21 02:04:11;;;;;;;;;;;16.70;99.90;;;;;;5076600;28;19921;-82
2021/07/21 02:06:37;;;;;;;;;;;16.70;99.90;;;;;;5075788;28;19924;-83
2021/07/21 02:09:04;;;;;;;;;;;16.70;99.90;;;;;;5094359;28;19932;-80
2021/07/21 02:11:29;;;;;;;;;;;16.70;99.90;;;;;;5083251;28;20008;-83
2021/07/21 02:13:56;;;;;;;;;;;16.60;99.90;;;;;;5077020;28;19917;-78
2021/07/21 02:16:21;;;;;;;;;;;16.60;99.90;;;;;;5082243;28;19900;-82
2021/07/21 02:18:50;;;;;;;;;;;16.50;99.90;;;;;;5087030;28;19921;-82
2021/07/21 02:21:16;;;;;;;;;;;16.50;99.90;;;;;;5079180;28;19924;-78
2021/07/21 02:23:44;;;;;;;;;;;16.50;99.90;;;;;;5095570;28;19940;-82
2021/07/21 02:26:10;;;;;;;;;;;16.50;99.90;;;;;;5096629;28;19919;-81
2021/07/21 02:28:36;;;;;;;;;;;16.40;99.90;;;;;;5088137;28;19904;-81
2021/07/21 02:31:04;;;;;;;;;;;16.40;99.90;;;;;;5086193;28;19923;-81
2021/07/21 02:33:49;;;;;;;;;;;16.40;99.90;;;;;;5087702;28;19922;-83
2021/07/21 02:36:14;;;;;;;;;;;16.30;99.90;;;;;;5088014;28;19904;-81
2021/07/21 02:38:40;;;;;;;;;;;16.30;99.90;;;;;;5097081;28;19907;-82
2021/07/21 02:41:06;;;;;;;;;;;16.30;99.90;;;;;;5099199;28;19901;-82
2021/07/21 02:43:33;;;;;;;;;;;16.30;99.90;;;;;;5086171;28;19905;-81
2021/07/21 02:45:59;;;;;;;;;;;16.30;99.90;;;;;;5092242;28;19923;-81
2021/07/21 02:48:24;;;;;;;;;;;16.30;99.90;;;;;;5097215;28;19933;-81
2021/07/21 02:50:53;;;;;;;;;;;16.30;99.90;;;;;;5098476;28;19900;-82
2021/07/21 02:53:21;;;;;;;;;;;16.30;99.90;;;;;;5087331;28;19905;-81
2021/07/21 02:55:50;;;;;;;;;;;16.20;99.90;;;;;;5079009;28;19923;-81
2021/07/21 02:58:24;;;;;;;;;;;16.20;99.90;;;;;;5093853;28;19907;-81
2021/07/21 03:00:51;;;;;;;;;;;16.20;99.90;;;;;;5092680;28;19901;-81
2021/07/21 03:03:18;;;;;;;;;;;16.20;99.90;;;;;;5078941;28;19921;-82
2021/07/21 03:05:45;;;;;;;;;;;16.20;99.90;;;;;;5078912;28;19913;-80
2021/07/21 03:08:12;;;;;;;;;;;16.20;99.90;;;;;;5089569;28;19927;-77
2021/07/21 03:10:40;;;;;;;;;;;16.20;99.90;;;;;;5067074;28;20393;-82
2021/07/21 03:13:08;;;;;;;;;;;16.20;99.90;;;;;;5058908;28;19912;-79
2021/07/21 03:15:35;;;;;;;;;;;16.20;99.90;;;;;;5064265;28;19919;-81
2021/07/21 03:18:02;;;;;;;;;;;16.10;99.90;;;;;;5071778;28;19913;-82
2021/07/21 03:20:27;;;;;;;;;;;16.20;99.90;;;;;;5076114;28;19931;-82
2021/07/21 03:22:55;;;;;;;;;;;16.20;99.90;;;;;;5070167;28;19956;-83
2021/07/21 03:25:22;;;;;;;;;;;16.20;99.90;;;;;;5074208;28;19913;-82
2021/07/21 03:27:49;;;;;;;;;;;16.20;99.90;;;;;;5076748;28;19912;-83
2021/07/21 03:30:15;;;;;;;;;;;16.20;99.90;;;;;;5076578;28;20296;-79
2021/07/21 03:32:42;;;;;;;;;;;16.20;99.90;;;;;;5073842;28;19965;-82
2021/07/21 03:35:09;;;;;;;;;;;16.20;99.90;;;;;;5060846;28;19912;-82
2021/07/21 03:37:35;;;;;;;;;;;16.20;99.90;;;;;;5061618;28;19939;-82
2021/07/21 03:40:04;;;;;;;;;;;16.10;99.90;;;;;;5055749;28;19913;-82
2021/07/21 03:42:30;;;;;;;;;;;16.00;99.90;;;;;;5088343;28;19920;-82
2021/07/21 03:45:01;;;;;;;;;;;16.00;99.90;;;;;;5072353;28;19913;-82
2021/07/21 03:47:27;;;;;;;;;;;15.90;99.90;;;;;;5066217;28;19913;-83
2021/07/21 03:49:53;;;;;;;;;;;16.00;99.90;;;;;;5068763;28;19977;-82
2021/07/21 03:52:19;;;;;;;;;;;15.90;99.90;;;;;;5071698;28;19958;-83
2021/07/21 03:54:46;;;;;;;;;;;15.90;99.90;;;;;;5072528;28;20284;-83
2021/07/21 03:57:13;;;;;;;;;;;15.90;99.90;;;;;;5073626;28;20339;-83
2021/07/21 03:59:38;;;;;;;;;;;15.80;99.90;;;;;;5069553;28;19964;-83
2021/07/21 04:02:05;;;;;;;;;;;15.80;99.90;;;;;;5067723;28;19922;-82
2021/07/21 04:04:31;;;;;;;;;;;15.80;99.90;;;;;;5070090;28;19920;-83
2021/07/21 04:06:57;;;;;;;;;;;15.80;99.90;;;;;;5073412;28;19912;-83
2021/07/21 04:09:24;;;;;;;;;;;15.80;99.90;;;;;;5071859;28;19931;-83
2021/07/21 04:11:50;;;;;;;;;;;15.80;99.90;;;;;;5066432;28;19923;-82
2021/07/21 04:14:17;;;;;;;;;;;15.80;99.90;;;;;;5058836;28;20387;-82
2021/07/21 04:16:42;;;;;;;;;;;15.80;99.90;;;;;;5061695;28;19923;-83
2021/07/21 04:19:10;;;;;;;;;;;15.80;99.90;;;;;;5068065;28;20365;-82
2021/07/21 04:21:37;;;;;;;;;;;15.80;99.90;;;;;;5062581;28;19958;-82
2021/07/21 04:24:04;;;;;;;;;;;15.90;99.90;;;;;;5061302;28;19916;-81
2021/07/21 04:26:32;;;;;;;;;;;15.80;99.90;;;;;;5060591;28;19971;-81
2021/07/21 04:28:58;;;;;;;;;;;15.80;99.90;;;;;;5054877;28;19924;-82
2021/07/21 04:31:27;;;;;;;;;;;15.80;99.90;;;;;;5067420;28;19959;-82
2021/07/21 04:33:53;;;;;;;;;;;15.90;99.90;;;;;;5055631;28;20387;-82
2021/07/21 04:36:19;;;;;;;;;;;15.90;99.90;;;;;;5056027;28;19920;-82
2021/07/21 04:38:45;;;;;;;;;;;15.90;99.90;;;;;;5057153;28;19912;-82
2021/07/21 04:41:10;;;;;;;;;;;15.90;99.90;;;;;;5064407;28;19913;-82
2021/07/21 04:43:36;;;;;;;;;;;15.90;99.90;;;;;;5063985;28;19912;-82
2021/07/21 04:46:02;;;;;;;;;;;16.00;99.90;;;;;;5075658;28;19920;-81
2021/07/21 04:48:28;;;;;;;;;;;16.00;99.90;;;;;;5070964;28;19961;-81
2021/07/21 04:50:54;;;;;;;;;;;16.00;99.90;;;;;;5061332;28;20400;-81
2021/07/21 04:53:19;;;;;;;;;;;16.00;99.90;;;;;;5073181;28;20326;-82
2021/07/21 04:55:46;;;;;;;;;;;16.10;99.90;;;;;;5071930;28;20007;-82
2021/07/21 04:58:12;;;;;;;;;;;16.10;99.90;;;;;;5074569;28;20280;-80
2021/07/21 05:00:37;;;;;;;;;;;16.20;99.90;;;;;;5065280;28;19913;-82
2021/07/21 05:03:06;;;;;;;;;;;16.20;99.90;;;;;;5055224;28;19917;-82
2021/07/21 05:05:38;;;;;;;;;;;16.30;99.90;;;;;;5061479;28;19920;-82
2021/07/21 05:08:04;;;;;;;;;;;16.30;99.90;;;;;;5056557;28;19928;-82
2021/07/21 05:10:30;;;;;;;;;;;16.30;99.90;;;;;;5058411;28;19921;-82
2021/07/21 05:12:57;;;;;;;;;;;16.40;99.90;;;;;;5061779;28;19921;-82
2021/07/21 05:15:22;;;;;;;;;;;16.50;99.90;;;;;;5075199;28;19913;-81
2021/07/21 05:17:48;;;;;;;;;;;16.60;99.90;;;;;;5075006;28;19913;-82
2021/07/21 05:20:13;;;;;;;;;;;16.60;99.90;;;;;;5058690;28;19917;-81
2021/07/21 05:22:45;;;;;;;;;;;16.70;99.90;;;;;;5072134;28;20028;-82
2021/07/21 05:25:11;;;;;;;;;;;16.80;99.90;;;;;;5069828;28;19963;-81
2021/07/21 05:27:37;;;;;;;;;;;16.90;99.90;;;;;;5064148;28;19913;-81
2021/07/21 05:30:03;;;;;;;;;;;17.00;99.90;;;;;;5067358;28;19943;-81
2021/07/21 05:32:29;;;;;;;;;;;17.20;99.90;;;;;;5070075;28;19912;-81
2021/07/21 05:34:54;;;;;;;;;;;17.30;99.90;;;;;;5066615;28;19912;-81
2021/07/21 05:37:20;;;;;;;;;;;17.50;99.90;;;;;;5074574;28;20391;-81
2021/07/21 05:39:45;;;;;;;;;;;17.60;99.90;;;;;;5056537;28;19919;-80
2021/07/21 05:42:11;;;;;;;;;;;17.70;99.90;;;;;;5061412;28;19912;-81
2021/07/21 05:44:36;;;;;;;;;;;17.80;99.90;;;;;;5073093;28;19920;-81
2021/07/21 05:47:02;;;;;;;;;;;17.90;99.90;;;;;;5070237;28;19913;-81
2021/07/21 05:49:27;;;;;;;;;;;18.10;99.90;;;;;;5062766;28;19951;-81
2021/07/21 05:51:53;;;;;;;;;;;18.20;99.90;;;;;;5061147;28;20385;-81
2021/07/21 05:54:20;;;;;;;;;;;18.30;99.90;;;;;;5071693;28;19919;-81
2021/07/21 05:56:45;;;;;;;;;;;18.40;99.90;;;;;;5073703;28;19919;-81
2021/07/21 05:59:11;;;;;;;;;;;18.50;99.90;;;;;;5054205;28;19913;-82
2021/07/21 06:01:36;;;;;;;;;;;18.60;99.90;;;;;;5060467;28;20277;-82
2021/07/21 06:04:02;;;;;;;;;;;18.70;99.90;;;;;;5064978;28;20156;-82
2021/07/21 06:06:28;;;;;;;;;;;18.70;99.90;;;;;;5060039;28;19913;-82
2021/07/21 06:08:53;;;;;;;;;;;18.80;99.90;;;;;;5060878;28;19966;-82
2021/07/21 06:11:19;;;;;;;;;;;18.90;99.90;;;;;;5065817;28;19921;-82
2021/07/21 06:16:29;;;;;;;;;;;19.60;99.90;;;;;;5063592;28;19955;-81
2021/07/21 06:18:55;;;;;;;;;;;19.80;99.90;;;;;;5062635;28;19916;-81
2021/07/21 06:21:21;;;;;;;;;;;19.90;99.90;;;;;;5065596;28;19912;-81
2021/07/21 06:23:47;;;;;;;;;;;19.80;99.90;;;;;;5065916;28;20045;-81
2021/07/21 06:26:13;;;;;;;;;;;19.90;99.90;;;;;;5072940;28;19966;-80
2021/07/21 06:28:38;;;;;;;;;;;20.20;99.90;;;;;;5073833;28;19916;-80
2021/07/21 06:31:04;;;;;;;;;;;21.60;99.90;;;;;;5073542;28;19919;-81
2021/07/21 06:33:29;;;;;;;;;;;23.40;99.90;;;;;;5073569;28;19938;-80
2021/07/21 06:35:55;;;;;;;;;;;24.60;99.90;;;;;;5074243;28;19917;-80
2021/07/21 06:38:20;;;;;;;;;;;25.70;99.10;;;;;;5059598;28;19920;-80
2021/07/21 06:40:46;;;;;;;;;;;26.30;98.60;;;;;;5058426;28;19920;-81
2021/07/21 06:43:11;;;;;;;;;;;26.80;97.70;;;;;;5057056;28;20357;-81
2021/07/21 06:45:37;;;;;;;;;;;27.30;96.60;;;;;;5057410;28;19920;-81
2021/07/21 06:48:03;;;;;;;;;;;27.40;96.40;;;;;;5074152;28;19916;-80
2021/07/21 06:50:28;;;;;;;;;;;27.60;96.00;;;;;;5060399;28;19912;-81
2021/07/21 06:52:54;;;;;;;;;;;27.80;95.90;;;;;;5066163;28;19920;-81
2021/07/21 06:55:19;;;;;;;;;;;27.90;95.50;;;;;;5073744;28;19912;-81
2021/07/21 06:57:45;;;;;;;;;;;27.30;95.50;;;;;;5063196;28;19919;-81
2021/07/21 07:00:11;;;;;;;;;;;26.50;96.00;;;;;;5066952;28;20390;-81
2021/07/21 07:02:36;;;;;;;;;;;25.70;96.90;;;;;;5073754;28;20013;-81
2021/07/21 07:05:02;;;;;;;;;;;24.90;97.70;;;;;;5073054;28;20293;-80
2021/07/21 07:07:28;;;;;;;;;;;24.20;98.00;;;;;;5065967;28;20353;-80
2021/07/21 07:09:53;;;;;;;;;;;23.80;98.90;;;;;;5064810;28;20047;-80
2021/07/21 07:12:20;;;;;;;;;;;23.50;99.10;;;;;;5069131;28;19913;-81
2021/07/21 07:14:46;;;;;;;;;;;23.30;99.60;;;;;;5072753;28;19920;-81
2021/07/21 07:17:11;;;;;;;;;;;23.50;98.30;;;;;;5071696;28;19912;-82
2021/07/21 07:19:37;;;;;;;;;;;24.00;98.10;;;;;;5072471;28;19913;-81
2021/07/21 07:22:02;;;;;;;;;;;25.00;97.20;;;;;;5073362;28;19924;-81
2021/07/21 07:24:28;;;;;;;;;;;25.80;96.20;;;;;;5064075;28;19913;-81
2021/07/21 07:26:57;;;;;;;;;;;26.40;96.10;;;;;;5053881;28;20003;-81
2021/07/21 07:29:23;;;;;;;;;;;26.90;95.80;;;;;;5065642;28;19920;-81
2021/07/21 07:31:49;;;;;;;;;;;27.20;96.20;;;;;;5074031;28;19955;-80
2021/07/21 07:34:14;;;;;;;;;;;27.40;95.60;;;;;;5072775;28;19912;-81
2021/07/21 07:36:40;;;;;;;;;;;27.20;95.30;;;;;;5073136;28;20377;-80
2021/07/21 07:39:07;;;;;;;;;;;26.90;95.30;;;;;;5073772;28;20022;-81
2021/07/21 07:41:33;;;;;;;;;;;26.50;95.40;;;;;;5073050;28;19962;-81
2021/07/21 07:43:59;;;;;;;;;;;26.10;95.30;;;;;;5073907;28;20386;-81
2021/07/21 07:46:27;;;;;;;;;;;25.70;96.10;;;;;;5072516;28;19927;-82
2021/07/21 07:48:54;;;;;;;;;;;25.40;95.70;;;;;;5071912;28;20408;-81
2021/07/21 07:51:20;;;;;;;;;;;25.10;96.50;;;;;;5062976;28;19921;-77
2021/07/21 07:53:46;;;;;;;;;;;25.10;96.10;;;;;;5068272;28;19919;-81
2021/07/21 07:56:11;;;;;;;;;;;25.10;95.80;;;;;;5068447;28;19913;-76
2021/07/21 07:58:37;;;;;;;;;;;25.10;96.00;;;;;;5074240;28;19912;-81
2021/07/21 08:01:03;;;;;;;;;;;25.20;96.20;;;;;;5053986;28;19916;-80
2021/07/21 08:03:29;;;;;;;;;;;25.30;95.90;;;;;;5071943;28;19920;-77
2021/07/21 08:05:56;;;;;;;;;;;25.40;95.80;;;;;;5073423;28;19920;-77
2021/07/21 08:08:22;;;;;;;;;;;25.60;95.80;;;;;;5057726;28;19924;-77
2021/07/21 08:10:48;;;;;;;;;;;25.80;95.40;;;;;;5065844;28;19920;-78
2021/07/21 08:13:13;;;;;;;;;;;25.90;95.30;;;;;;5074925;28;20011;-75
2021/07/21 08:15:39;;;;;;;;;;;26.10;94.70;;;;;;5075766;28;19920;-80
2021/07/21 08:18:04;;;;;;;;;;;26.40;94.30;;;;;;5074801;28;19927;-82
2021/07/21 08:20:30;;;;;;;;;;;26.50;94.40;;;;;;5061061;28;21174;-78
2021/07/21 08:22:55;;;;;;;;;;;26.60;94.80;;;;;;5061371;28;20328;-79
2021/07/21 08:25:24;;;;;;;;;;;26.80;94.20;;;;;;5072885;28;19962;-78
2021/07/21 08:27:49;;;;;;;;;;;27.10;93.30;;;;;;5064425;28;19916;-79
2021/07/21 08:30:15;;;;;;;;;;;27.20;92.90;;;;;;5073207;28;20360;-78
2021/07/21 08:32:44;;;;;;;;;;;27.10;93.00;;;;;;5075784;28;19913;-78
2021/07/21 08:35:11;;;;;;;;;;;27.00;92.60;;;;;;5067516;28;19917;-78
2021/07/21 08:37:36;;;;;;;;;;;27.20;92.60;;;;;;5073795;28;20364;-79
2021/07/21 08:40:02;;;;;;;;;;;27.50;92.50;;;;;;5076190;28;19920;-78
2021/07/21 08:42:29;;;;;;;;;;;27.60;92.60;;;;;;5076559;28;20039;-79
2021/07/21 08:44:56;;;;;;;;;;;27.90;92.00;;;;;;5057084;28;19912;-79
2021/07/21 08:47:21;;;;;;;;;;;28.10;92.20;;;;;;5068312;28;20273;-80
2021/07/21 08:49:47;;;;;;;;;;;28.10;92.00;;;;;;5072292;28;19916;-79
2021/07/21 08:52:14;;;;;;;;;;;28.30;91.90;;;;;;5077538;28;19966;-81
2021/07/21 08:54:39;;;;;;;;;;;28.30;91.40;;;;;;5063141;28;19913;-78
2021/07/21 08:57:05;;;;;;;;;;;28.00;92.10;;;;;;5059683;28;19920;-78
2021/07/21 08:59:31;;;;;;;;;;;28.20;91.80;;;;;;5076252;28;19926;-76
2021/07/21 09:01:56;;;;;;;;;;;28.20;92.40;;;;;;5063090;28;19921;-79
2021/07/21 09:04:22;;;;;;;;;;;28.50;91.50;;;;;;5068235;28;20007;-78
2021/07/21 09:06:48;;;;;;;;;;;28.90;91.50;;;;;;5068625;28;19916;-77
2021/07/21 09:09:13;;;;;;;;;;;29.20;90.90;;;;;;5076485;28;19943;-78
2021/07/21 09:11:40;;;;;;;;;;;29.30;90.80;;;;;;5085576;28;19927;-77
2021/07/21 09:14:07;;;;;;;;;;;29.30;90.60;;;;;;5079141;28;19930;-79
2021/07/21 09:16:32;;;;;;;;;;;29.30;90.90;;;;;;5079213;28;19920;-78
2021/07/21 09:18:58;;;;;;;;;;;29.30;90.90;;;;;;5072580;28;19913;-78
2021/07/21 09:21:24;;;;;;;;;;;29.40;91.00;;;;;;5075132;28;20308;-78
2021/07/21 09:23:51;;;;;;;;;;;29.70;90.10;;;;;;5075643;28;21610;-77
2021/07/21 09:26:22;;;;;;;;;;;29.70;90.30;;;;;;5077712;28;20349;-78
2021/07/21 09:28:49;;;;;;;;;;;29.90;90.00;;;;;;5082006;28;19951;-78
2021/07/21 09:31:26;;;;;;;;;;;30.00;90.00;;;;;;5071845;28;19913;-79
2021/07/21 09:33:51;;;;;;;;;;;30.00;89.50;;;;;;5062172;28;19913;-78
2021/07/21 09:36:19;;;;;;;;;;;29.80;89.20;;;;;;5063262;28;20285;-75
2021/07/21 09:38:46;;;;;;;;;;;29.20;90.10;;;;;;5063629;28;19966;-78
2021/07/21 09:41:12;;;;;;;;;;;29.00;90.80;;;;;;5063259;28;19912;-79
2021/07/21 09:43:37;;;;;;;;;;;29.20;90.20;;;;;;5063219;28;20330;-79
2021/07/21 09:46:07;;;;;;;;;;;29.20;90.40;;;;;;5063457;28;19973;-77
2021/07/21 09:48:43;;;;;;;;;;;29.10;90.20;;;;;;5080916;28;20303;-77
2021/07/21 09:51:10;;;;;;;;;;;29.20;90.50;;;;;;5063283;28;19912;-79
2021/07/21 09:53:45;;;;;;;;;;;29.00;90.10;;;;;;5062109;28;19912;-78
2021/07/21 09:56:11;;;;;;;;;;;28.80;90.70;;;;;;5062020;28;19913;-79
2021/07/21 09:58:37;;;;;;;;;;;28.30;91.00;;;;;;5071254;28;20284;-78
2021/07/21 10:01:03;;;;;;;;;;;28.20;91.00;;;;;;5061388;28;20048;-79
2021/07/21 10:03:30;;;;;;;;;;;28.30;90.60;;;;;;5057705;28;19913;-78
2021/07/21 10:06:09;;;;;;;;;;;28.00;90.70;;;;;;5064452;28;19955;-79
2021/07/21 10:08:43;;;;;;;;;;;27.80;91.20;;;;;;5059964;28;19926;-79
2021/07/21 10:11:21;;;;;;;;;;;27.50;91.20;;;;;;5062575;28;19935;-78
2021/07/21 10:13:47;;;;;;;;;;;27.70;91.00;;;;;;5062146;28;20265;-79
2021/07/21 10:16:31;;;;;;;;;;;27.80;91.00;;;;;;5062299;28;19917;-79
2021/07/21 10:19:00;;;;;;;;;;;27.60;91.80;;;;;;5057448;28;19920;-78
2021/07/21 10:21:26;;;;;;;;;;;27.40;91.80;;;;;;5060431;28;19959;-78
2021/07/21 10:23:51;;;;;;;;;;;27.50;91.70;;;;;;5062555;28;19947;-75
2021/07/21 10:26:17;;;;;;;;;;;27.50;91.50;;;;;;5061994;28;19912;-74
2021/07/21 10:28:42;;;;;;;;;;;27.80;91.40;;;;;;5061789;28;20607;-78
2021/07/21 10:31:08;;;;;;;;;;;28.30;90.90;;;;;;5062202;28;19966;-77
2021/07/21 10:33:35;;;;;;;;;;;28.10;91.20;;;;;;5060674;28;20319;-79
2021/07/21 10:36:02;;;;;;;;;;;28.10;91.20;;;;;;5060582;28;20050;-77
2021/07/21 10:38:27;;;;;;;;;;;28.50;90.90;;;;;;5055111;28;19920;-77
2021/07/21 10:40:53;;;;;;;;;;;28.80;90.70;;;;;;5064054;28;20328;-78
2021/07/21 10:43:18;;;;;;;;;;;28.20;91.10;;;;;;5059339;28;19913;-77
2021/07/21 10:45:44;;;;;;;;;;;28.40;91.00;;;;;;5060961;28;19920;-77
2021/07/21 10:48:19;;;;;;;;;;;27.90;91.60;;;;;;5060103;28;19913;-77
2021/07/21 10:50:58;;;;;;;;;;;27.40;91.40;;;;;;5058328;28;19916;-75
2021/07/21 10:53:28;;;;;;;;;;;26.50;92.00;;;;;;5061844;28;19957;-75
2021/07/21 11:01:26;;;;;;;;;;;26.90;92.20;;;;;;5061953;28;20414;-76
2021/07/21 11:04:02;;;;;;;;;;;26.70;92.20;;;;;;5059613;28;19920;-79
2021/07/21 11:06:39;;;;;;;;;;;26.90;92.00;;;;;;5061593;28;19920;-79
2021/07/21 11:09:22;;;;;;;;;;;26.90;92.20;;;;;;5057068;28;19921;-78
2021/07/21 11:11:51;;;;;;;;;;;27.00;92.30;;;;;;5063623;28;19927;-79
2021/07/21 11:14:18;;;;;;;;;;;26.50;92.20;;;;;;5066920;28;19999;-79
2021/07/21 11:16:51;;;;;;;;;;;26.30;92.60;;;;;;5074506;28;20266;-78
2021/07/21 11:19:26;;;;;;;;;;;26.50;93.40;;;;;;5069332;28;19916;-78
2021/07/21 11:21:52;;;;;;;;;;;26.40;93.60;;;;;;5058220;28;20319;-77
2021/07/21 11:24:18;;;;;;;;;;;26.30;93.20;;;;;;5056950;28;20062;-77
2021/07/21 11:26:44;;;;;;;;;;;26.30;93.20;;;;;;5055980;28;20000;-78
2021/07/21 11:29:33;;;;;;;;;;;26.40;92.90;;;;;;5055839;28;19924;-78
2021/07/21 11:32:00;;;;;;;;;;;26.70;92.50;;;;;;5069717;28;19908;-78
2021/07/21 11:34:28;;;;;;;;;;;26.90;92.70;;;;;;5054961;28;19921;-81
2021/07/21 11:36:56;;;;;;;;;;;27.20;93.00;;;;;;5059965;28;20612;-79
2021/07/21 11:39:34;;;;;;;;;;;27.40;92.80;;;;;;5056499;28;20299;-79
2021/07/21 11:42:01;;;;;;;;;;;27.70;92.50;;;;;;5060211;28;19965;-76
2021/07/21 11:44:27;;;;;;;;;;;27.70;91.90;;;;;;5058620;28;20112;-79
2021/07/21 11:46:54;;;;;;;;;;;27.60;92.10;;;;;;5059066;28;19960;-78
2021/07/21 11:49:24;;;;;;;;;;;27.30;91.70;;;;;;5059036;28;19953;-82
2021/07/21 11:51:50;;;;;;;;;;;27.20;92.20;;;;;;5063014;28;20339;-82
2021/07/21 11:54:23;;;;;;;;;;;27.30;92.10;;;;;;5057916;28;20289;-77
2021/07/21 11:56:48;;;;;;;;;;;27.40;92.60;;;;;;5058946;28;19963;-83
2021/07/21 11:59:14;;;;;;;;;;;26.90;92.70;;;;;;5060854;28;20372;-81
2021/07/21 12:01:40;;;;;;;;;;;26.40;92.90;;;;;;5053533;28;19932;-76
2021/07/21 12:04:05;;;;;;;;;;;26.00;93.20;;;;;;5059327;28;19913;-82
2021/07/21 12:06:31;;;;;;;;;;;25.80;93.40;;;;;;5058997;28;19920;-83
2021/07/21 12:08:57;;;;;;;;;;;25.80;93.60;;;;;;5065641;28;19977;-79
2021/07/21 12:11:23;;;;;;;;;;;25.80;93.70;;;;;;5059937;28;19928;-82
2021/07/21 12:13:59;;;;;;;;;;;26.00;93.20;;;;;;5059719;28;19927;-79
2021/07/21 12:16:25;;;;;;;;;;;26.00;93.30;;;;;;5058246;28;19927;-78
2021/07/21 12:19:01;;;;;;;;;;;26.00;94.00;;;;;;5058733;28;20013;-77
2021/07/21 12:21:29;;;;;;;;;;;26.00;94.40;;;;;;5056404;28;19928;-79
2021/07/21 12:23:58;;;;;;;;;;;26.00;94.60;;;;;;5060272;28;20027;-84
2021/07/21 12:26:23;;;;;;;;;;;26.30;93.10;;;;;;5057603;28;20007;-82
2021/07/21 12:28:58;;;;;;;;;;;26.60;93.00;;;;;;5061674;28;20345;-81
2021/07/21 12:31:24;;;;;;;;;;;26.50;93.60;;;;;;5059900;28;19916;-79
2021/07/21 12:33:50;;;;;;;;;;;26.30;93.50;;;;;;5062788;28;19992;-81
2021/07/21 12:36:16;;;;;;;;;;;26.20;94.20;;;;;;5059304;28;20353;-79
2021/07/21 12:38:41;;;;;;;;;;;25.90;93.60;;;;;;5057615;28;19972;-77
2021/07/21 12:41:08;;;;;;;;;;;25.60;94.30;;;;;;5058960;28;19919;-78
2021/07/21 12:43:34;;;;;;;;;;;25.50;94.00;;;;;;5060638;28;20270;-79
2021/07/21 12:45:59;;;;;;;;;;;25.10;94.30;;;;;;5058853;28;19970;-82
2021/07/21 12:48:26;;;;;;;;;;;25.10;94.50;;;;;;5064013;28;20011;-78
2021/07/21 12:50:51;;;;;;;;;;;25.20;94.70;;;;;;5059415;28;19921;-79
2021/07/21 12:53:19;;;;;;;;;;;25.20;94.60;;;;;;5061662;28;20336;-81
2021/07/21 12:55:46;;;;;;;;;;;25.50;94.70;;;;;;5064486;28;19965;-80
2021/07/21 12:58:13;;;;;;;;;;;25.60;95.20;;;;;;5066163;28;20283;-85
2021/07/21 13:00:43;;;;;;;;;;;25.70;94.70;;;;;;5065421;28;19913;-82
2021/07/21 13:03:10;;;;;;;;;;;25.60;95.30;;;;;;5082134;28;19916;-79
2021/07/21 13:05:48;;;;;;;;;;;25.20;95.00;;;;;;5066670;28;20050;-82
2021/07/21 13:08:33;;;;;;;;;;;25.20;94.60;;;;;;5062355;28;19920;-81
2021/07/21 13:11:01;;;;;;;;;;;25.30;94.40;;;;;;5061048;28;20373;-79
2021/07/21 13:13:29;;;;;;;;;;;25.40;95.20;;;;;;5065139;28;20343;-82
2021/07/21 13:16:08;;;;;;;;;;;25.40;95.30;;;;;;5062886;28;19932;-81
2021/07/21 13:18:34;;;;;;;;;;;25.20;94.90;;;;;;5061824;28;19999;-82
2021/07/21 13:21:00;;;;;;;;;;;25.10;95.20;;;;;;5063062;28;19944;-79
2021/07/21 13:23:26;;;;;;;;;;;25.00;95.40;;;;;;5062855;28;19944;-82
2021/07/21 13:26:04;;;;;;;;;;;25.00;96.00;;;;;;5060016;28;20230;-81
2021/07/21 13:28:30;;;;;;;;;;;25.10;95.90;;;;;;5061022;28;19917;-78
2021/07/21 13:30:57;;;;;;;;;;;25.10;95.40;;;;;;5058786;28;19991;-80
2021/07/21 13:33:30;;;;;;;;;;;25.10;95.00;;;;;;5060410;28;19917;-82
2021/07/21 13:36:00;;;;;;;;;;;25.20;95.00;;;;;;5061679;28;20289;-77
2021/07/21 13:38:25;;;;;;;;;;;25.40;95.10;;;;;;5058866;28;19964;-76
2021/07/21 13:41:05;;;;;;;;;;;25.30;95.30;;;;;;5066348;28;20376;-76
2021/07/21 13:43:30;;;;;;;;;;;25.40;95.10;;;;;;5062315;28;20016;-76
2021/07/21 13:45:56;;;;;;;;;;;25.40;95.30;;;;;;5061987;28;19995;-79
2021/07/21 13:48:26;;;;;;;;;;;25.50;94.80;;;;;;5062647;28;20389;-78
2021/07/21 13:51:11;;;;;;;;;;;25.60;94.40;;;;;;5060975;28;19928;-78
2021/07/21 13:53:37;;;;;;;;;;;25.60;94.40;;;;;;5064552;28;20356;-76
2021/07/21 13:56:03;;;;;;;;;;;25.70;94.10;;;;;;5059889;28;19916;-85
2021/07/21 13:58:29;;;;;;;;;;;25.70;93.80;;;;;;5060742;28;19959;-78
2021/07/21 14:00:54;;;;;;;;;;;25.80;94.00;;;;;;5059478;28;20031;-78
2021/07/21 14:03:20;;;;;;;;;;;25.90;94.10;;;;;;5059353;28;19966;-79
2021/07/21 14:05:46;;;;;;;;;;;25.90;94.10;;;;;;5056537;28;20368;-79
2021/07/21 14:08:11;;;;;;;;;;;25.80;94.40;;;;;;5066774;28;19916;-79
2021/07/21 14:10:37;;;;;;;;;;;25.80;94.30;;;;;;5074547;28;19920;-78
2021/07/21 14:13:02;;;;;;;;;;;25.90;94.70;;;;;;5064416;28;20033;-79
2021/07/21 14:15:28;;;;;;;;;;;25.90;94.80;;;;;;5061386;28;19923;-77
2021/07/21 14:17:54;;;;;;;;;;;26.00;94.40;;;;;;5069185;28;19913;-79
2021/07/21 14:20:20;;;;;;;;;;;25.90;94.30;;;;;;5068286;28;20028;-79
2021/07/21 14:22:45;;;;;;;;;;;26.00;94.50;;;;;;5068889;28;19979;-79
2021/07/21 14:25:12;;;;;;;;;;;26.10;94.20;;;;;;5072923;28;19919;-76
2021/07/21 14:27:38;;;;;;;;;;;26.30;93.80;;;;;;5060948;28;19913;-79